Minerva Joy — 9HA3334 — position and weather

sailwx.info

Track history (hours):
 
Tides and Currents Weather Stations Pressure Air Temp Water Temp Dewpoint Dewpoint Depression Visibility Wind Speed Wind Dir Waves Ship Positions

Minerva Joy

Last reported at 2018-Feb-16 16:15 UTC. Time now 2018-Feb-18 18:38 UTC.
Position N 06°19' E 002°32'.

Length 179 m; draft 10.2 m.

Type: Ship. MMSI: 229446000.

Date/timePositionNaut miles runAvg speedWind from/ knotsBaromVisibWave heightAir tempDewpointWater temp
2018-Feb-16 16:15N 06°19' E 002°32'71 3.1
2018-Feb-15 17:45N 06°02' E 001°23'  
2018-Feb-12 19:56N 06°08' E 001°18'0 0.5
2018-Feb-12 19:28N 06°08' E 001°18'2 2.7
2018-Feb-12 18:50N 06°07' E 001°19'1 1.4
2018-Feb-12 18:25N 06°06' E 001°20'2 2.7
2018-Feb-12 17:51N 06°05' E 001°20'1 1.7
2018-Feb-12 17:30N 06°04' E 001°20'0 0.6
2018-Feb-12 16:58N 06°04' E 001°19'0 0.3
2018-Feb-12 16:17N 06°04' E 001°19'0 0.0
2018-Feb-12 15:59N 06°04' E 001°19'0 0.0
2018-Feb-12 15:17N 06°04' E 001°19'0 0.0
2018-Feb-11 21:05N 06°04' E 001°20'0 0.1
2018-Feb-11 20:59N 06°04' E 001°20'0 0.0
2018-Feb-11 20:14N 06°04' E 001°20'0 0.0
2018-Feb-11 19:44N 06°04' E 001°19'0 0.0
2018-Feb-11 19:17N 06°04' E 001°19'0 0.0
2018-Feb-11 18:44N 06°04' E 001°20'0 0.0
2018-Feb-11 18:29N 06°04' E 001°20'0 0.0
2018-Feb-11 17:59N 06°04' E 001°19'0 0.0
2018-Feb-11 17:29N 06°04' E 001°20'0 0.0
2018-Feb-11 16:56N 06°04' E 001°19'0 0.0
2018-Feb-11 15:38N 06°04' E 001°19'0 0.0
2018-Feb-11 02:56N 06°04' E 001°20'0 0.0
2018-Feb-11 02:26N 06°04' E 001°20'0 0.0
2018-Feb-11 01:56N 06°04' E 001°20'0 0.0
2018-Feb-10 23:08N 06°04' E 001°20'0 0.0
2018-Feb-10 22:59N 06°04' E 001°20'0 0.0
2018-Feb-10 22:26N 06°04' E 001°20'0 0.0
2018-Feb-10 21:38N 06°04' E 001°20'0 0.0
2018-Feb-10 19:47N 06°04' E 001°20'0 0.0
2018-Feb-10 19:29N 06°04' E 001°20'0 0.0
2018-Feb-10 18:59N 06°04' E 001°20'0 0.0
2018-Feb-10 18:29N 06°04' E 001°20'0 0.0
2018-Feb-10 17:59N 06°04' E 001°20'0 0.0
2018-Feb-10 17:29N 06°04' E 001°20'0 0.0
2018-Feb-10 16:59N 06°04' E 001°20'  
2018-Feb-07 23:17N 05°59' E 001°14'0 0.0
2018-Feb-07 22:59N 05°59' E 001°14'0 0.0
2018-Feb-07 21:26N 05°59' E 001°14'1 0.1
2018-Feb-07 09:13N 05°60' E 001°13'1 3.3
2018-Feb-07 08:59N 06°00' E 001°14'2 3.9
2018-Feb-07 08:30N 06°02' E 001°15'3 5.7
2018-Feb-07 07:57N 06°04' E 001°17'2 0.1
2018-Feb-06 18:50N 06°06' E 001°18'0 0.2
2018-Feb-06 18:15N 06°06' E 001°18'0 1.9
2018-Feb-06 18:00N 06°06' E 001°18'1 1.0
2018-Feb-06 17:30N 06°06' E 001°18'2 2.7
2018-Feb-06 16:57N 06°05' E 001°20'  
Track history (hours):
 
Tides and Currents Weather Stations Pressure Air Temp Water Temp Dewpoint Dewpoint Depression Visibility Wind Speed Wind Dir Waves Ship Positions

Minerva Joy

Last reported at 2018-Feb-16 16:15 UTC. Time now 2018-Feb-18 18:38 UTC.
Position N 06°19' E 002°32'.

Length 179 m; draft 10.2 m.

Type: Ship. MMSI: 229446000.

Date/timePositionNaut miles runAvg speedWind from/ knotsBaromVisibWave heightAir tempDewpointWater temp
2018-Feb-16 16:15N 06°19' E 002°32'71 3.1
2018-Feb-15 17:45N 06°02' E 001°23'  
2018-Feb-12 19:56N 06°08' E 001°18'0 0.5
2018-Feb-12 19:28N 06°08' E 001°18'2 2.7
2018-Feb-12 18:50N 06°07' E 001°19'1 1.4
2018-Feb-12 18:25N 06°06' E 001°20'2 2.7
2018-Feb-12 17:51N 06°05' E 001°20'1 1.7
2018-Feb-12 17:30N 06°04' E 001°20'0 0.6
2018-Feb-12 16:58N 06°04' E 001°19'0 0.3
2018-Feb-12 16:17N 06°04' E 001°19'0 0.0
2018-Feb-12 15:59N 06°04' E 001°19'0 0.0
2018-Feb-12 15:17N 06°04' E 001°19'0 0.0
2018-Feb-11 21:05N 06°04' E 001°20'0 0.1
2018-Feb-11 20:59N 06°04' E 001°20'0 0.0
2018-Feb-11 20:14N 06°04' E 001°20'0 0.0
2018-Feb-11 19:44N 06°04' E 001°19'0 0.0
2018-Feb-11 19:17N 06°04' E 001°19'0 0.0
2018-Feb-11 18:44N 06°04' E 001°20'0 0.0
2018-Feb-11 18:29N 06°04' E 001°20'0 0.0
2018-Feb-11 17:59N 06°04' E 001°19'0 0.0
2018-Feb-11 17:29N 06°04' E 001°20'0 0.0
2018-Feb-11 16:56N 06°04' E 001°19'0 0.0
2018-Feb-11 15:38N 06°04' E 001°19'0 0.0
2018-Feb-11 02:56N 06°04' E 001°20'0 0.0
2018-Feb-11 02:26N 06°04' E 001°20'0 0.0
2018-Feb-11 01:56N 06°04' E 001°20'0 0.0
2018-Feb-10 23:08N 06°04' E 001°20'0 0.0
2018-Feb-10 22:59N 06°04' E 001°20'0 0.0
2018-Feb-10 22:26N 06°04' E 001°20'0 0.0
2018-Feb-10 21:38N 06°04' E 001°20'0 0.0
2018-Feb-10 19:47N 06°04' E 001°20'0 0.0
2018-Feb-10 19:29N 06°04' E 001°20'0 0.0
2018-Feb-10 18:59N 06°04' E 001°20'0 0.0
2018-Feb-10 18:29N 06°04' E 001°20'0 0.0
2018-Feb-10 17:59N 06°04' E 001°20'0 0.0
2018-Feb-10 17:29N 06°04' E 001°20'0 0.0
2018-Feb-10 16:59N 06°04' E 001°20'  
2018-Feb-07 23:17N 05°59' E 001°14'0 0.0
2018-Feb-07 22:59N 05°59' E 001°14'0 0.0
2018-Feb-07 21:26N 05°59' E 001°14'1 0.1
2018-Feb-07 09:13N 05°60' E 001°13'1 3.3
2018-Feb-07 08:59N 06°00' E 001°14'2 3.9
2018-Feb-07 08:30N 06°02' E 001°15'3 5.7
2018-Feb-07 07:57N 06°04' E 001°17'2 0.1
2018-Feb-06 18:50N 06°06' E 001°18'0 0.2
2018-Feb-06 18:15N 06°06' E 001°18'0 1.9
2018-Feb-06 18:00N 06°06' E 001°18'1 1.0
2018-Feb-06 17:30N 06°06' E 001°18'2 2.7
2018-Feb-06 16:57N 06°05' E 001°20'  

Dump ship's entire track history